TimeEDT,TemperatureF,Dew PointF,Humidity,Sea Level PressureIn,VisibilityMPH,Wind Direction,Wind SpeedMPH,Gust SpeedMPH,PrecipitationIn,Events,Conditions,WindDirDegrees,DateUTC
12:05 AM,62.6,55.4,77,30.11,10.0,ESE,3.5,-,N/A,,Overcast,120,2013-09-27 04:05:00
12:24 AM,62.6,55.4,77,30.11,10.0,NE,3.5,-,N/A,,Overcast,40,2013-09-27 04:24:00
12:51 AM,60.1,51.1,72,30.11,10.0,North,8.1,-,N/A,,Overcast,10,2013-09-27 04:51:00
1:51 AM,57.0,50.0,77,30.13,10.0,North,6.9,-,N/A,,Mostly Cloudy,10,2013-09-27 05:51:00
1:58 AM,57.2,50.0,77,30.13,10.0,North,6.9,-,N/A,,Clear,10,2013-09-27 05:58:00
2:51 AM,55.9,50.0,80,30.13,10.0,North,5.8,-,N/A,,Scattered Clouds,350,2013-09-27 06:51:00
3:51 AM,55.0,50.0,83,30.13,10.0,North,8.1,-,N/A,,Partly Cloudy,10,2013-09-27 07:51:00
4:51 AM,55.0,50.0,83,30.15,10.0,NNE,10.4,-,N/A,,Partly Cloudy,20,2013-09-27 08:51:00
5:51 AM,55.9,51.1,84,30.16,10.0,NNE,8.1,-,N/A,,Mostly Cloudy,20,2013-09-27 09:51:00
6:51 AM,55.0,50.0,83,30.18,10.0,NNE,10.4,-,N/A,,Mostly Cloudy,20,2013-09-27 10:51:00
7:51 AM,57.0,50.0,77,30.20,10.0,North,11.5,-,N/A,,Mostly Cloudy,10,2013-09-27 11:51:00
8:51 AM,57.9,50.0,75,30.22,10.0,North,11.5,-,N/A,,Mostly Cloudy,10,2013-09-27 12:51:00
9:51 AM,62.1,52.0,70,30.23,10.0,NE,8.1,-,N/A,,Partly Cloudy,50,2013-09-27 13:51:00
10:51 AM,64.9,52.0,63,30.23,10.0,NNE,10.4,-,N/A,,Scattered Clouds,20,2013-09-27 14:51:00
11:51 AM,68.0,52.0,56,30.22,10.0,North,6.9,-,N/A,,Scattered Clouds,360,2013-09-27 15:51:00
12:51 PM,68.0,50.0,52,30.22,10.0,Variable,4.6,-,N/A,,Mostly Cloudy,0,2013-09-27 16:51:00
1:51 PM,68.0,51.1,55,30.21,10.0,East,5.8,-,N/A,,Mostly Cloudy,80,2013-09-27 17:51:00
2:51 PM,66.9,50.0,54,30.20,10.0,NNE,9.2,-,N/A,,Overcast,20,2013-09-27 18:51:00
3:51 PM,66.9,50.0,54,30.20,10.0,NNE,8.1,-,N/A,,Overcast,30,2013-09-27 19:51:00
4:51 PM,66.0,50.0,56,30.20,10.0,NNE,9.2,-,N/A,,Overcast,30,2013-09-27 20:51:00
5:51 PM,66.0,51.1,59,30.21,10.0,NNE,10.4,-,N/A,,Mostly Cloudy,20,2013-09-27 21:51:00
6:51 PM,64.9,51.1,61,30.22,10.0,NNE,9.2,-,N/A,,Mostly Cloudy,20,2013-09-27 22:51:00
7:51 PM,64.9,51.1,61,30.23,10.0,NNE,6.9,-,N/A,,Mostly Cloudy,30,2013-09-27 23:51:00
8:51 PM,64.0,51.1,63,30.24,10.0,NNE,8.1,-,N/A,,Mostly Cloudy,30,2013-09-28 00:51:00
9:51 PM,63.0,50.0,63,30.25,10.0,NNE,9.2,-,N/A,,Mostly Cloudy,30,2013-09-28 01:51:00
10:51 PM,63.0,50.0,63,30.27,10.0,NNE,9.2,-,N/A,,Overcast,20,2013-09-28 02:51:00
11:51 PM,57.9,51.1,78,30.27,10.0,NNE,6.9,-,N/A,,Mostly Cloudy,20,2013-09-28 03:51:00